createdAt,value
2022-08-26T00:04:37.812Z,24.60
2022-08-26T00:10:41.706Z,24.56
2022-08-26T00:16:47.627Z,24.56
2022-08-26T00:22:51.812Z,24.51
2022-08-26T00:28:55.069Z,24.47
2022-08-26T00:34:59.921Z,24.44
2022-08-26T00:41:04.752Z,24.46
2022-08-26T00:47:19.165Z,24.40
2022-08-26T00:53:27.881Z,24.34
2022-08-26T00:59:33.293Z,24.32
2022-08-26T01:05:36.992Z,24.35
2022-08-26T01:11:42.833Z,24.32
2022-08-26T01:17:47.427Z,24.28
2022-08-26T01:23:57.634Z,24.30
2022-08-26T01:30:02.349Z,24.28
2022-08-26T01:36:07.723Z,24.22
2022-08-26T01:42:16.077Z,24.21
2022-08-26T01:48:26.074Z,24.18
2022-08-26T01:54:29.766Z,24.17
2022-08-26T02:00:35.842Z,24.14
2022-08-26T02:06:40.269Z,24.12
2022-08-26T02:12:44.112Z,24.08
2022-08-26T02:18:53.327Z,24.05
2022-08-26T02:24:59.149Z,24.03
2022-08-26T02:31:03.132Z,24.20
2022-08-26T02:37:11.854Z,24.29
2022-08-26T02:43:15.409Z,24.29
2022-08-26T02:49:19.523Z,24.24
2022-08-26T02:55:25.256Z,24.03
2022-08-26T03:01:32.430Z,24.09
2022-08-26T03:07:36.109Z,24.12
2022-08-26T03:13:41.190Z,24.09
2022-08-26T03:19:45.315Z,23.92
2022-08-26T03:25:51.237Z,23.83
2022-08-26T03:31:56.197Z,23.77
2022-08-26T03:37:59.920Z,23.78
2022-08-26T03:44:06.905Z,23.79
2022-08-26T03:50:15.081Z,23.77
2022-08-26T03:56:18.610Z,23.72
2022-08-26T04:02:22.132Z,23.70
2022-08-26T04:08:28.033Z,23.69
2022-08-26T04:14:32.555Z,23.68
2022-08-26T04:20:36.113Z,23.63
2022-08-26T04:26:42.602Z,23.57
2022-08-26T04:32:46.708Z,23.54
2022-08-26T04:38:50.722Z,23.58
2022-08-26T04:44:56.505Z,23.53
2022-08-26T04:51:01.422Z,23.51
2022-08-26T04:57:05.225Z,23.46
2022-08-26T05:03:10.777Z,23.47
2022-08-26T05:09:15.228Z,23.51
2022-08-26T05:15:18.983Z,23.57
2022-08-26T05:21:25.581Z,23.62
2022-08-26T05:27:30.633Z,23.63
2022-08-26T05:33:34.300Z,23.61
2022-08-26T05:39:41.193Z,23.63
2022-08-26T05:45:47.144Z,23.60
2022-08-26T05:51:50.693Z,23.64
2022-08-26T05:57:55.620Z,23.65
2022-08-26T06:04:01.861Z,23.67
2022-08-26T06:10:30.970Z,-145.26
2022-08-26T06:16:32.401Z,-145.26
2022-08-26T06:22:54.935Z,-145.26
2022-08-26T06:28:59.066Z,-145.26
2022-08-26T06:35:04.077Z,-145.26
2022-08-26T06:41:11.549Z,-145.26
2022-08-26T06:47:15.188Z,23.97
2022-08-26T06:53:20.727Z,24.07
2022-08-26T06:59:24.731Z,24.07
2022-08-26T07:05:28.345Z,24.14
2022-08-26T07:11:38.800Z,24.21
2022-08-26T07:17:42.393Z,24.31
2022-08-26T07:23:48.431Z,24.27
2022-08-26T07:29:57.911Z,24.31
2022-08-26T07:36:01.916Z,24.33
2022-08-26T07:42:08.568Z,24.30
2022-08-26T07:48:13.914Z,24.39
2022-08-26T07:54:17.976Z,24.46
2022-08-26T08:00:23.129Z,24.45
2022-08-26T08:06:29.041Z,24.45
2022-08-26T08:12:32.592Z,24.45
2022-08-26T08:18:37.741Z,24.45
2022-08-26T08:24:42.824Z,24.48
2022-08-26T08:30:46.403Z,24.47
2022-08-26T08:36:50.455Z,24.49
2022-08-26T08:43:06.246Z,24.52
2022-08-26T08:49:11.601Z,24.55
2022-08-26T08:55:18.314Z,24.55
2022-08-26T09:01:35.274Z,24.59
2022-08-26T09:07:41.073Z,24.62
2022-08-26T09:13:51.374Z,24.66
2022-08-26T09:20:06.442Z,24.66
2022-08-26T09:26:17.104Z,24.68
2022-08-26T09:32:25.024Z,24.66
2022-08-26T09:38:35.681Z,24.68
2022-08-26T09:44:57.198Z,24.65
2022-08-26T09:51:03.681Z,24.65
2022-08-26T09:57:19.534Z,24.67
2022-08-26T10:03:28.663Z,24.76
2022-08-26T10:09:40.125Z,24.82
2022-08-26T10:15:52.054Z,24.82
2022-08-26T10:22:01.348Z,24.86
2022-08-26T10:28:13.181Z,24.91
2022-08-26T10:34:19.200Z,24.89
2022-08-26T10:40:27.293Z,24.87
2022-08-26T10:46:39.717Z,24.91
2022-08-26T10:52:58.797Z,24.96
2022-08-26T10:59:12.524Z,24.95
2022-08-26T11:05:19.813Z,24.93
2022-08-26T11:11:47.044Z,24.90
2022-08-26T11:18:00.649Z,24.92
2022-08-26T11:24:05.138Z,24.94
2022-08-26T11:30:41.112Z,24.95
2022-08-26T11:36:58.382Z,25.00
2022-08-26T11:43:06.993Z,25.01
2022-08-26T11:49:13.061Z,24.99
2022-08-26T11:55:17.173Z,24.98
2022-08-26T12:01:28.549Z,24.98
2022-08-26T12:07:36.751Z,24.97
2022-08-26T12:13:56.258Z,24.97
2022-08-26T12:19:59.572Z,24.94
2022-08-26T12:26:11.517Z,24.95
2022-08-26T12:32:18.536Z,24.95
2022-08-26T12:38:22.418Z,-145.26
2022-08-26T12:44:53.270Z,-145.26
2022-08-26T12:50:59.356Z,-145.26
2022-08-26T12:57:11.234Z,-145.26
2022-08-26T13:03:46.398Z,-145.26
2022-08-26T13:09:51.338Z,-145.26
2022-08-26T13:15:54.928Z,-145.26
2022-08-26T13:22:01.610Z,-145.26
2022-08-26T13:28:05.333Z,-145.26
2022-08-26T13:34:09.845Z,-145.26
2022-08-26T13:40:14.950Z,-145.26
2022-08-26T13:46:20.302Z,-145.26
2022-08-26T13:52:30.134Z,-145.26
2022-08-26T13:58:35.369Z,-145.26
2022-08-26T14:04:38.918Z,-145.26
2022-08-26T14:10:42.828Z,-145.26
2022-08-26T14:16:58.884Z,-145.26
2022-08-26T14:23:13.582Z,-145.26
2022-08-26T14:29:17.170Z,-145.26
2022-08-26T14:35:26.285Z,-145.26
2022-08-26T14:41:34.225Z,-145.26
2022-08-26T14:47:37.765Z,-145.26
2022-08-26T14:54:00.347Z,-145.26
2022-08-26T15:00:04.633Z,-145.26
2022-08-26T15:06:09.668Z,-145.26
2022-08-26T15:12:14.621Z,-145.26
2022-08-26T15:18:18.162Z,-145.26
2022-08-26T15:24:23.218Z,-145.26
2022-08-26T15:30:28.357Z,-145.26
2022-08-26T15:36:32.558Z,-145.26
2022-08-26T15:42:36.186Z,-145.26
2022-08-26T15:48:41.429Z,-145.26
2022-08-26T15:54:45.061Z,-145.26
2022-08-26T16:00:50.957Z,-145.26
2022-08-26T16:06:56.173Z,-145.26
2022-08-26T16:12:59.780Z,-145.26
2022-08-26T16:19:07.286Z,-145.26
2022-08-26T16:25:12.915Z,-145.26
2022-08-26T16:31:19.096Z,-145.26
2022-08-26T16:37:25.460Z,-145.26
2022-08-26T16:43:30.490Z,-145.26
2022-08-26T16:49:34.296Z,-145.26
2022-08-26T16:55:38.098Z,-145.26
2022-08-26T17:01:43.064Z,-145.26
2022-08-26T17:07:46.624Z,-145.26
2022-08-26T17:13:50.206Z,-145.26
2022-08-26T17:19:55.155Z,-145.26
2022-08-26T17:25:58.806Z,-145.26
2022-08-26T17:32:02.429Z,-145.26
2022-08-26T17:38:07.841Z,-145.26
2022-08-26T17:44:11.686Z,-145.26
2022-08-26T17:50:18.245Z,-145.26
2022-08-26T17:56:26.486Z,-145.26
2022-08-26T18:08:34.606Z,-145.26
2022-08-26T18:14:39.834Z,-145.26
2022-08-26T18:20:45.965Z,-145.26
2022-08-26T18:26:55.634Z,-145.26
2022-08-26T18:33:01.231Z,-145.26
2022-08-26T18:39:06.237Z,-145.26
2022-08-26T18:45:16.216Z,-145.26
2022-08-26T18:51:23.277Z,-145.26
2022-08-26T18:57:27.207Z,-145.26
2022-08-26T19:03:30.835Z,-145.26
2022-08-26T19:09:36.504Z,24.24
2022-08-26T19:15:40.753Z,24.26
2022-08-26T19:21:49.198Z,24.31
2022-08-26T19:27:54.118Z,24.35
2022-08-26T19:33:58.150Z,24.30
2022-08-26T19:40:03.127Z,24.44
2022-08-26T19:46:13.086Z,24.56
2022-08-26T19:52:16.734Z,24.53
2022-08-26T19:58:20.302Z,24.71
2022-08-26T20:04:25.349Z,24.75
2022-08-26T20:10:31.439Z,24.83
2022-08-26T20:16:34.829Z,24.85
2022-08-26T20:22:39.887Z,24.89
2022-08-26T20:28:43.430Z,24.92
2022-08-26T20:34:46.706Z,24.88
2022-08-26T20:40:51.985Z,24.90
2022-08-26T20:47:00.028Z,24.92
2022-08-26T20:53:03.641Z,24.86
2022-08-26T20:59:08.900Z,24.83
2022-08-26T21:05:12.554Z,24.67
2022-08-26T21:11:18.275Z,24.66
2022-08-26T21:17:23.229Z,24.55
2022-08-26T21:23:29.289Z,24.47
2022-08-26T21:29:32.921Z,24.40
2022-08-26T21:35:37.878Z,24.34
2022-08-26T21:41:42.641Z,24.29
2022-08-26T21:47:46.733Z,24.29
2022-08-26T21:53:53.013Z,24.20
2022-08-26T21:59:57.345Z,24.11
2022-08-26T22:06:01.546Z,24.13
2022-08-26T22:12:09.654Z,24.18
2022-08-26T22:18:13.204Z,24.20
2022-08-26T22:24:17.471Z,24.21
2022-08-26T22:30:22.713Z,24.19
2022-08-26T22:36:28.266Z,24.24
2022-08-26T22:42:31.785Z,24.35
2022-08-26T22:48:38.054Z,24.34
2022-08-26T22:54:41.612Z,24.37
2022-08-26T23:00:46.080Z,24.35
2022-08-26T23:06:51.201Z,24.34
2022-08-26T23:12:54.999Z,24.26
2022-08-26T23:18:58.556Z,24.16
2022-08-26T23:25:06.782Z,24.13
2022-08-26T23:31:11.395Z,24.12
2022-08-26T23:37:14.923Z,24.09
2022-08-26T23:43:20.271Z,24.03
2022-08-26T23:49:24.332Z,24.00
2022-08-26T23:55:28.230Z,23.99
